Aeroporto :
LOGIN :

Iscrizione | Disclaimer

   EN    FR    IT 

 










Sommario :    VFR   VFR Marginale   IFR   IFR Intensivo   IFR Molto Intensivo
Visibilità : 
Base nubi : 
>= 8 km
>= 3000ft
5 / 8 km
1000 / 3000 ft
1500m / 5 km
500 / 1000 ft
800 / 1500m
200 / 500 ft
< 800m
< 200 ft
Simboli :   Temporali  Nebbia  Neve Forte  Precipitazioni Forti  Vento > 20 kt
SIGMETs :   Varie  Temporali  Ghiacco  Turbolenza  Onda orograficha  Ceneri Vulcaniche






- Altitudine del aeroporto : 156 ft
- Codice IATA : MLN


GEML - Melilla

ULTIMO METAR :
  • 032030Z AUTO 10007KT 060V130 9999 FEW019 16/11 Q1017

METARs OBSOLETI :
  • 032000Z AUTO 10007KT 070V140 CAVOK 16/11 Q1017
  • 031930Z AUTO 11008KT 070V140 CAVOK 16/11 Q1016
  • 031900Z AUTO 11009KT 080V140 CAVOK 16/11 Q1016
  • 031830Z AUTO 10008KT 070V130 CAVOK 16/11 Q1016
  • 031800Z AUTO 08008KT CAVOK 16/10 Q1016
  • 031730Z AUTO 09009KT 050V130 CAVOK 17/09 Q1016

TAF TAF GEML
Valido dal 03 a 15 ore il 04 a 15 ore UTC


031400Z 0315/0415 10009KT CAVOK TX19/0414Z TN14/0406Z
PROB40
TEMPO 0321/0408 BKN012



MetMap, La meteo Aeronautica in un colpo d'occhio ! - Copyright ORBIFLY Dicembre 2007 - Disclaimer

ORBIFLY MET'MAP TEAM :

Programmazione e sviluppo : Alexandra Zaïnal
Concezione : Baudouin d'Aumeries
Aiuto per la programmazione : Marc-Olivier Méhu
Supporto tecnico e logistico : Manuel Goepfert
Aiuto per la traduzione : Arnaldo La Scala

Contatto : metmap@orbifly.com




FONTI E CREDITI :

   NOAA